Архив погоды в Татарске

Метеограмма Татарск
Четверг, 20 Июня
Время местн. Темп Ветер Видим Явления Облачность нижн/средн/верх Атм. давл. Влжн Точка росы ВНГО R Сост. почвы Tg s
Напр Скр Прв ур.ст ур.м изм
22:00 +19.4° Ю,Ю-З 1 - 20 км - облачно 752 761 +0.2 55% +10° более 2.5 км - - - -
19:00 +22.4° З,Ю-З 4 - 20 км - переменная облачность 751 761 -0.3 39% +7.8° 1 км 0 - - -
16:00 +23.1° З 3 - 20 км - облачно с прояснениями 752 762 -0.4 34% +6.3° 1 км - - - -
13:00 +19.8° Ю-З 3 - 20 км - облачно 752 762 +0.5 45% +7.5° 1 км - - - -
10:00 +18.3° З 1 - 20 км - переменная облачность 752 761 +0.8 51% +7.9° более 2.5 км - - - -
07:00 +11.6° Ю-З 1 - 20 км - переменная облачность 751 761 +0.9 73% +7° более 2.5 км 0 Влажная (без луж) +11° -
04:00 +11.8° Ю,Ю-З 2 - 20 км - переменная облачность 750 760 +0.2 78% +8° более 2.5 км - - - -
01:00 +12.3° Ю,Ю-З 2 - 20 км - переменная облачность 750 760 +0.8 77% +8.3° более 2.5 км - - - -
Среда, 19 Июня
Время местн. Темп Ветер Видим Явления Облачность нижн/средн/верх Атм. давл. Влжн Точка росы ВНГО R Сост. почвы Tg s
Напр Скр Прв ур.ст ур.м изм
22:00 +16.7° Ю 2 - 20 км - ясно 749 759 +0.8 55% +7.6° более 2.5 км - - - -
19:00 +18.2° С-З 2 10 20 км - преимущественно облачно 748 758 +0.6 44% +5.6° более 2.5 км 0 - - -
16:00 +16.3° З,С-З 4 13 20 км - преимущественно облачно 747 757 +0.9 57% +7.7° 1 км - - - -
13:00 +17.1° З 3 - 20 км - преимущественно облачно 747 756 +0.8 52% +7.2° 1 км - - - -
10:00 +16.1° З 2 - 20 км - ясно 746 756 +0.9 56% +7.2° более 2.5 км - - - -
07:00 +9.6° З,Ю-З 2 - 20 км - ясно 745 755 +1.4 76% +5.6° более 2.5 км 0 Сырая (есть малые или большие лужи) +8° -
04:00 +9.2° З 2 - 20 км - ясно 744 754 +0.5 77% +5.3° более 2.5 км - - - -
01:00 +11.6° З,Ю-З 2 - 20 км - облачно 743 753 +1.1 78% +7.9° 1 км - - - -
Вторник, 18 Июня
Время местн. Темп Ветер Видим Явления Облачность нижн/средн/верх Атм. давл. Влжн Точка росы ВНГО R Сост. почвы Tg s
Напр Скр Прв ур.ст ур.м изм
22:00 +13° З,С-З 3 11 20 км - облачно 742 752 +1.1 68% +7.2° 1 км - - - -
19:00 +13.7° З,С-З 5 - 20 км небо без изменений {ливневые осадки} облачно 741 751 +1.3 75% +9.4° 600 м 7 - - -
16:00 +12° З,С-З 4 - 10 км слабый ливневый дождь облачно 739 749 +0.6 90% +10.4° 600 м - - - -
13:00 +12.9° С-З 1 - 10 км слабый ливневый дождь облачно 739 749 -0.5 90% +11.3° 600 м - - - -
10:00 +12.1° С-В 3 - 10 км слабый ливневый дождь облачно 739 749 -1.1 91% +10.7° 600 м - - - -
07:00 +12° С,С-В 2 - 10 км слабый ливневый дождь облачно 740 750 -1.7 87% +9.9° 600 м 0.8 Влажная (без луж) +13° -
04:00 +12.3° С 1 - 20 км - облачно 742 752 -1.1 85% +9.8° 600 м - - - -
01:00 +13.4° С 1 - 20 км - облачно 743 753 -0.6 77% +9.4° 1 км - - - -
Понедельник, 17 Июня
Время местн. Темп Ветер Видим Явления Облачность нижн/средн/верх Атм. давл. Влжн Точка росы ВНГО R Сост. почвы Tg s
Напр Скр Прв ур.ст ур.м изм
22:00 +16.5° З 2 - 20 км - облачно 744 754 +0.4 59% +8.5° 1 км - - - -
19:00 +18.6° Ю 3 12 20 км небо без изменений {гроза, ливневые осадки} облачно 743 753 -1 53% +8.9° 1 км 0.5 - - -